createdAt,value
2017-11-30T00:40:55.533Z,59.4
2017-11-30T00:41:11.620Z,59.3
2017-11-30T00:41:25.356Z,59.3
2017-11-30T00:41:41.258Z,59.5
2017-11-30T00:41:56.904Z,59.1
2017-11-30T00:42:13.097Z,59.1
2017-11-30T00:42:30.822Z,59.5
2017-11-30T00:42:46.965Z,59.5
2017-11-30T00:43:03.076Z,59.1
2017-11-30T00:43:15.226Z,59.1
2017-11-30T00:43:30.620Z,59.1
2017-11-30T00:43:47.036Z,59.4
2017-11-30T00:44:04.524Z,59.7
2017-11-30T00:44:18.272Z,59.5
2017-11-30T00:44:33.656Z,59.9
2017-11-30T00:44:49.775Z,59.3
2017-11-30T00:45:01.902Z,59.4
2017-11-30T00:45:18.897Z,59.4
2017-11-30T00:45:36.725Z,59.5
2017-11-30T00:45:48.791Z,59.5
2017-11-30T00:46:05.724Z,59.5
2017-11-30T00:46:17.936Z,59.7
2017-11-30T00:46:32.841Z,59.5
2017-11-30T00:46:45.412Z,59.7
2017-11-30T00:46:56.757Z,59.7
2017-11-30T00:47:10.781Z,59.5
2017-11-30T00:47:22.636Z,59.5
2017-11-30T00:47:34.028Z,59.6
2017-11-30T00:47:46.953Z,59.7
2017-11-30T00:47:58.994Z,60.1
2017-11-30T00:48:11.266Z,59.7
2017-11-30T00:48:22.668Z,59.5
2017-11-30T00:48:35.590Z,59.7
2017-11-30T00:48:50.977Z,59.6
2017-11-30T00:49:03.171Z,59.3
2017-11-30T00:49:20.040Z,59.3
2017-11-30T00:49:36.162Z,59.6
2017-11-30T00:49:52.398Z,60
2017-11-30T00:50:04.532Z,60.4
2017-11-30T00:50:18.132Z,60
2017-11-30T00:50:35.787Z,60.3
2017-11-30T00:50:59.122Z,60.6
2017-11-30T00:51:16.288Z,60.3
2017-11-30T00:51:32.483Z,60.3
2017-11-30T00:51:44.583Z,60.3
2017-11-30T00:52:01.690Z,60.6
2017-11-30T00:52:19.237Z,60.4
2017-11-30T00:52:33.790Z,60.4
2017-11-30T00:52:46.041Z,60.5
2017-11-30T00:52:57.366Z,60.2
2017-11-30T00:53:08.729Z,60.2
2017-11-30T00:53:24.152Z,60.3
2017-11-30T00:53:41.232Z,60.6
2017-11-30T00:53:58.106Z,60.3
2017-11-30T00:54:10.161Z,60.3
2017-11-30T00:54:25.549Z,60
2017-11-30T00:54:41.665Z,60.2
2017-11-30T00:54:53.842Z,59.9
2017-11-30T00:55:10.807Z,59.7
2017-11-30T00:55:22.958Z,59.3
2017-11-30T00:55:39.898Z,59.7
2017-11-30T00:55:53.036Z,59.7
2017-11-30T00:56:09.001Z,59.7
2017-11-30T00:56:52.524Z,59.7
2017-11-30T00:57:08.681Z,59.6
2017-11-30T00:57:24.795Z,59.5
2017-11-30T00:57:41.021Z,59.2
2017-11-30T00:57:53.141Z,59.2
2017-11-30T00:58:06.049Z,59.7
2017-11-30T00:58:21.425Z,59.3
2017-11-30T00:58:33.588Z,59.3
2017-11-30T00:58:50.586Z,59.7
2017-11-30T00:59:02.969Z,59.3
2017-11-30T00:59:19.613Z,59.2
2017-11-30T00:59:35.804Z,59.7
2017-11-30T00:59:51.986Z,59.5
2017-11-30T01:00:08.106Z,59.8
2017-11-30T01:00:20.243Z,59.5
2017-11-30T01:00:37.209Z,59.5
2017-11-30T01:00:53.388Z,59.7
2017-11-30T01:01:10.136Z,59.4
2017-11-30T01:01:25.668Z,59.6
2017-11-30T01:01:41.824Z,59.8
2017-11-30T01:02:06.117Z,59.6
2017-11-30T01:02:22.118Z,59.6
2017-11-30T01:02:38.332Z,59.4
2017-11-30T01:02:54.402Z,59.4
2017-11-30T01:03:10.588Z,59.6
2017-11-30T01:03:26.777Z,59.5
2017-11-30T01:03:42.885Z,59.7
2017-11-30T01:03:59.045Z,59.7
2017-11-30T01:04:15.268Z,59.6
2017-11-30T01:04:31.434Z,59.6
2017-11-30T01:04:48.071Z,59.4
2017-11-30T01:05:03.606Z,59.8
2017-11-30T01:05:19.778Z,59.7
2017-11-30T01:05:36.573Z,59.7
2017-11-30T01:05:48.150Z,59.6
2017-11-30T01:06:06.043Z,59.4
2017-11-30T01:06:22.811Z,59.7
2017-11-30T01:06:38.988Z,59.7
2017-11-30T01:06:55.153Z,59.3
2017-11-30T01:07:13.789Z,59.6
2017-11-30T01:07:26.651Z,59.3
2017-11-30T01:07:43.632Z,59.7
2017-11-30T01:07:55.739Z,59.7
2017-11-30T01:08:08.696Z,59.7
2017-11-30T01:08:20.021Z,59.6
2017-11-30T01:08:36.978Z,59.6
2017-11-30T01:08:53.129Z,59.6
2017-11-30T01:09:05.323Z,59.6
2017-11-30T01:09:21.364Z,59.7
2017-11-30T01:09:34.431Z,59.6
2017-11-30T01:09:49.794Z,59.3
2017-11-30T01:10:05.917Z,59.3
2017-11-30T01:10:28.003Z,59.9
2017-11-30T01:10:44.628Z,59.9
2017-11-30T01:10:56.812Z,59.7
2017-11-30T01:11:13.827Z,59.7
2017-11-30T01:11:25.917Z,59.9
2017-11-30T01:11:42.824Z,59.5
2017-11-30T01:11:55.523Z,59.5
2017-11-30T01:12:07.979Z,59.3
2017-11-30T01:12:24.928Z,59.5
2017-11-30T01:12:37.034Z,59.4
2017-11-30T01:12:48.404Z,59.2
2017-11-30T01:12:59.764Z,59.6
2017-11-30T01:13:12.695Z,59.3
2017-11-30T01:13:28.090Z,59.7
2017-11-30T01:13:44.213Z,59.1
2017-11-30T01:13:56.363Z,59.8
2017-11-30T01:14:11.726Z,59.8
2017-11-30T01:14:27.906Z,59.2
2017-11-30T01:14:40.022Z,59.4
2017-11-30T01:14:51.413Z,59.5
2017-11-30T01:15:08.335Z,59.2
2017-11-30T01:15:24.490Z,59.4
2017-11-30T01:15:36.696Z,59.2
2017-11-30T01:15:49.607Z,59.6
2017-11-30T01:16:00.967Z,59.3
2017-11-30T01:16:12.309Z,59.5
2017-11-30T01:16:25.289Z,59.3
2017-11-30T01:16:40.644Z,59.3
2017-11-30T01:16:52.782Z,59.4
2017-11-30T01:17:09.716Z,59.7
2017-11-30T01:17:25.906Z,59.4
2017-11-30T01:17:42.067Z,59.5
2017-11-30T01:17:54.199Z,59.4
2017-11-30T01:18:06.561Z,59.6
2017-11-30T01:18:22.513Z,59.6
2017-11-30T01:18:38.608Z,59.5
2017-11-30T01:19:04.827Z,59.8
2017-11-30T01:19:16.569Z,59.6
2017-11-30T01:19:33.527Z,59.6
2017-11-30T01:19:49.653Z,59.6
2017-11-30T01:20:05.805Z,60.1
2017-11-30T01:20:21.942Z,59.8
2017-11-30T01:20:38.196Z,59.8
2017-11-30T01:20:54.396Z,59.8
2017-11-30T01:21:12.037Z,59.7
2017-11-30T01:21:28.343Z,60.2
2017-11-30T01:21:45.036Z,60.1
2017-11-30T01:22:00.501Z,60
2017-11-30T01:22:16.656Z,60
2017-11-30T01:22:32.853Z,60.3
2017-11-30T01:22:48.908Z,60.6
2017-11-30T01:23:05.073Z,60.6
2017-11-30T01:23:17.274Z,60.3
2017-11-30T01:23:34.293Z,60.5
2017-11-30T01:23:46.316Z,60
2017-11-30T01:24:01.816Z,59.9
2017-11-30T01:24:17.980Z,60.1
2017-11-30T01:24:33.985Z,60
2017-11-30T01:24:50.175Z,60
2017-11-30T01:25:06.363Z,60
2017-11-30T01:25:19.444Z,59.9
2017-11-30T01:25:31.402Z,60
2017-11-30T01:25:44.390Z,60.1
2017-11-30T01:26:00.964Z,60
2017-11-30T01:26:13.499Z,60
2017-11-30T01:26:27.195Z,60.1
2017-11-30T01:36:28.984Z,60.1
2017-11-30T01:36:45.184Z,60.2
2017-11-30T01:36:57.301Z,60
2017-11-30T01:37:08.655Z,60
2017-11-30T01:37:20.013Z,60
2017-11-30T01:37:32.983Z,60.2
2017-11-30T01:37:45.897Z,60
2017-11-30T01:38:01.354Z,59.5
2017-11-30T01:38:13.397Z,59.6
2017-11-30T01:38:27.055Z,59.7
2017-11-30T01:38:39.348Z,59.6
2017-11-30T01:38:56.250Z,59.7
2017-11-30T01:39:12.404Z,59.5
2017-11-30T01:39:28.583Z,59.3
2017-11-30T01:39:45.599Z,59.6
2017-11-30T01:39:58.547Z,59.5
2017-11-30T01:40:11.507Z,59.2
2017-11-30T01:40:28.449Z,59.3
2017-11-30T01:40:40.546Z,59.5
2017-11-30T01:40:55.909Z,59.5
2017-11-30T01:41:12.088Z,59.2
2017-11-30T01:41:24.248Z,59.5
2017-11-30T01:41:37.336Z,59.4
2017-11-30T01:41:54.132Z,59.2
2017-11-30T01:42:06.256Z,59.2
2017-11-30T01:42:19.319Z,59.2
2017-11-30T01:42:36.184Z,59.3
2017-11-30T01:42:48.321Z,59.2
2017-11-30T01:43:05.365Z,59.2
2017-11-30T01:43:17.403Z,59.8
2017-11-30T01:43:32.747Z,59.6
2017-11-30T01:43:44.919Z,59.7
2017-11-30T01:43:57.927Z,59.7
2017-11-30T01:44:10.826Z,59.3
2017-11-30T01:44:22.195Z,59.3
2017-11-30T01:44:39.447Z,59.4
2017-11-30T01:44:56.291Z,59.7
2017-11-30T01:45:09.066Z,59.4
2017-11-30T01:45:22.162Z,59.3
2017-11-30T01:45:38.980Z,59.2
2017-11-30T01:45:55.121Z,59.1
2017-11-30T01:46:07.300Z,59.6
2017-11-30T01:46:24.332Z,59.4
2017-11-30T01:46:36.443Z,59.1
2017-11-30T01:46:53.307Z,59.5
2017-11-30T01:47:09.541Z,59.4
2017-11-30T01:47:21.656Z,59.4
2017-11-30T01:47:38.569Z,59.4
2017-11-30T01:47:50.730Z,59
2017-11-30T01:48:06.103Z,59.4
2017-11-30T01:48:22.247Z,59.5
2017-11-30T01:48:38.463Z,59.5
2017-11-30T01:48:54.586Z,59.6
2017-11-30T01:49:06.729Z,59.6
2017-11-30T01:49:19.648Z,59.3
2017-11-30T01:49:36.614Z,59.5
2017-11-30T01:49:52.881Z,59.2
2017-11-30T01:50:04.929Z,59.3
2017-11-30T01:50:16.295Z,59.2
2017-11-30T01:50:34.299Z,59.2
2017-11-30T01:50:50.984Z,59.7
2017-11-30T01:51:03.280Z,59.7
2017-11-30T01:51:20.089Z,59.3
2017-11-30T01:51:32.275Z,59.3
2017-11-30T01:51:49.201Z,59.5
2017-11-30T01:52:07.042Z,59.5
2017-11-30T01:52:23.095Z,59.3
2017-11-30T01:52:40.863Z,59.5
2017-11-30T01:52:56.992Z,59.6
2017-11-30T01:53:13.141Z,59.5
2017-11-30T01:53:25.341Z,59.6
2017-11-30T01:53:39.881Z,59.3
2017-11-30T01:53:51.257Z,59.4
2017-11-30T01:54:15.184Z,59.8
2017-11-30T01:54:50.898Z,59.7
2017-11-30T01:55:06.236Z,59.7
2017-11-30T01:55:18.446Z,59.4
2017-11-30T01:55:31.324Z,59.4
2017-11-30T01:55:44.298Z,58.9
2017-11-30T01:55:59.673Z,59
2017-11-30T01:56:15.863Z,59.6
2017-11-30T01:56:27.977Z,59.7
2017-11-30T01:56:44.905Z,60
2017-11-30T01:57:01.080Z,59.3
2017-11-30T02:05:09.291Z,59.3
2017-11-30T02:05:21.398Z,59.2
2017-11-30T02:05:32.719Z,59.3
2017-11-30T02:05:45.730Z,59.5
2017-11-30T02:05:58.656Z,59.4
2017-11-30T02:06:11.959Z,59.2
2017-11-30T02:10:31.887Z,60.2
2017-11-30T02:10:48.092Z,60
2017-11-30T02:11:04.195Z,59.9
2017-11-30T02:11:16.371Z,60
2017-11-30T02:11:31.716Z,59.9
2017-11-30T02:11:47.896Z,59.7
2017-11-30T02:12:14.054Z,59.7
2017-11-30T02:12:27.501Z,59.7
2017-11-30T02:12:44.371Z,59.7
2017-11-30T02:12:57.164Z,59.7
2017-11-30T02:13:13.440Z,59.3
2017-11-30T02:13:29.584Z,59.7
2017-11-30T02:13:43.387Z,59.6
2017-11-30T02:14:00.309Z,59.5
2017-11-30T02:14:17.434Z,59.7
2017-11-30T02:14:30.206Z,59.5
2017-11-30T02:14:43.197Z,59.8
2017-11-30T02:15:00.105Z,59.8
2017-11-30T02:15:12.314Z,60
2017-11-30T02:15:25.318Z,59.7
2017-11-30T02:15:38.235Z,60
2017-11-30T02:15:51.160Z,60
2017-11-30T02:16:06.649Z,60.2
2017-11-30T02:16:19.623Z,60.4
2017-11-30T02:16:37.217Z,60.3
2017-11-30T02:16:53.327Z,60.3
2017-11-30T02:17:05.539Z,60.2
2017-11-30T02:17:18.479Z,60.2
2017-11-30T02:17:35.427Z,60.3
2017-11-30T02:17:51.597Z,60
2017-11-30T02:18:03.807Z,59.8
2017-11-30T02:18:16.721Z,59.6
2017-11-30T02:18:30.155Z,59.9
2017-11-30T02:18:45.918Z,60
2017-11-30T02:18:58.823Z,60.1
2017-11-30T02:19:11.701Z,60
2017-11-30T02:19:24.683Z,60
2017-11-30T02:19:37.608Z,60.1
2017-11-30T02:19:50.544Z,60
2017-11-30T02:20:04.157Z,60.5
2017-11-30T02:20:22.704Z,59.7
2017-11-30T02:20:34.314Z,60
2017-11-30T02:20:51.187Z,60.3
2017-11-30T02:21:07.335Z,60.3
2017-11-30T02:21:23.750Z,60.1
2017-11-30T02:21:41.234Z,60.5
2017-11-30T02:21:53.342Z,60.3
2017-11-30T02:22:06.307Z,60.2
2017-11-30T02:22:19.294Z,60.1
2017-11-30T02:22:32.239Z,60.2
2017-11-30T02:22:45.291Z,60.6
2017-11-30T02:22:58.106Z,60.1
2017-11-30T02:23:13.510Z,60.7
2017-11-30T02:23:25.659Z,60.6
2017-11-30T02:23:38.643Z,60.4
2017-11-30T02:23:51.638Z,60.9
2017-11-30T02:24:09.509Z,61.2
2017-11-30T02:24:26.199Z,61.9
2017-11-30T02:24:38.447Z,61.8
2017-11-30T02:24:51.362Z,61.5
2017-11-30T02:25:04.337Z,61.5
2017-11-30T02:25:21.265Z,61.5
2017-11-30T02:25:34.112Z,61.6
2017-11-30T02:25:46.350Z,61.5
2017-11-30T02:26:03.349Z,61.5
2017-11-30T02:26:15.494Z,61.4
2017-11-30T02:26:28.438Z,61.4
2017-11-30T02:26:41.370Z,61.6
2017-11-30T02:26:56.757Z,61.6
2017-11-30T02:27:08.854Z,61.2
2017-11-30T02:27:24.938Z,61.5
2017-11-30T02:27:40.449Z,61.5
2017-11-30T02:27:52.597Z,61.5
2017-11-30T02:28:05.512Z,61.7
2017-11-30T02:28:20.056Z,61.4
2017-11-30T02:28:35.423Z,61.5
2017-11-30T02:28:47.562Z,61.3
2017-11-30T02:29:00.474Z,61.5
2017-11-30T02:29:17.471Z,61.8
2017-11-30T02:29:29.695Z,61.3
2017-11-30T02:29:46.597Z,61
2017-11-30T02:29:58.839Z,61.1
2017-11-30T02:30:11.695Z,61.1
2017-11-30T02:30:25.401Z,61.1
2017-11-30T02:30:39.243Z,61.5
2017-11-30T02:30:52.195Z,61.7
2017-11-30T02:31:05.155Z,61.4
2017-11-30T02:31:18.102Z,61.6
2017-11-30T02:31:31.286Z,61.8
2017-11-30T02:31:43.969Z,62
2017-11-30T02:31:56.973Z,61.5
2017-11-30T02:32:13.925Z,61.4
2017-11-30T02:32:30.047Z,61.5
2017-11-30T02:32:46.198Z,61.4
2017-11-30T02:32:58.378Z,61.5
2017-11-30T02:33:15.323Z,61.1
2017-11-30T02:33:28.467Z,61.1
2017-11-30T02:33:40.454Z,60.8
2017-11-30T02:33:54.418Z,61
2017-11-30T02:34:06.345Z,60.9
2017-11-30T02:34:20.248Z,61.1
2017-11-30T02:34:37.812Z,60.7
2017-11-30T02:34:49.979Z,60.7
2017-11-30T02:35:02.905Z,60.6
2017-11-30T02:35:15.858Z,60.7
2017-11-30T02:35:28.845Z,61.1
2017-11-30T02:35:41.782Z,61.1
2017-11-30T02:35:54.770Z,60.8
2017-11-30T02:36:11.686Z,60.8
2017-11-30T02:36:23.855Z,60.8
2017-11-30T02:36:40.819Z,60.8
2017-11-30T02:36:52.954Z,61.1
2017-11-30T02:37:09.898Z,61.3
2017-11-30T02:37:26.094Z,60.6
2017-11-30T02:37:38.223Z,60.7
2017-11-30T02:37:49.564Z,60.7
2017-11-30T02:38:02.551Z,60.6
2017-11-30T02:38:18.686Z,60.7
2017-11-30T02:38:31.935Z,60.7
2017-11-30T02:48:32.601Z,61.1
2017-11-30T02:48:44.768Z,61.6
2017-11-30T02:48:57.686Z,61.4
2017-11-30T02:49:14.649Z,61.4
2017-11-30T02:49:30.813Z,61.4
2017-11-30T02:49:46.992Z,61.5
2017-11-30T02:49:59.089Z,61
2017-11-30T02:50:12.077Z,61.3
2017-11-30T02:50:25.014Z,61
2017-11-30T02:50:37.995Z,61.3
2017-11-30T02:50:50.892Z,61.9
2017-11-30T02:51:07.859Z,61.1
2017-11-30T02:51:23.995Z,60.9
2017-11-30T02:51:37.151Z,61.2
2017-11-30T02:51:53.122Z,60.9
2017-11-30T02:52:05.257Z,61.1
2017-11-30T02:52:18.214Z,61.1
2017-11-30T02:52:29.559Z,60.7
2017-11-30T02:52:42.508Z,61
2017-11-30T02:52:59.521Z,61
2017-11-30T02:53:11.645Z,61.2
2017-11-30T02:53:28.565Z,61.2
2017-11-30T02:53:44.744Z,61.7
2017-11-30T02:53:56.919Z,61.5
2017-11-30T02:54:13.846Z,61.5
2017-11-30T02:54:25.976Z,61.5
2017-11-30T02:54:41.381Z,61.4
2017-11-30T02:54:57.490Z,61.5
2017-11-30T02:55:09.633Z,61.5
2017-11-30T02:55:26.649Z,61.3
2017-11-30T02:55:40.342Z,61.7
2017-11-30T02:55:57.317Z,61.6
2017-11-30T02:56:09.431Z,61.4
2017-11-30T02:56:20.833Z,61.7
2017-11-30T02:56:37.767Z,61.5
2017-11-30T02:56:49.944Z,61.4
2017-11-30T02:57:06.957Z,61.7
2017-11-30T02:57:23.013Z,61.5
2017-11-30T02:57:39.218Z,61.7
2017-11-30T02:57:55.319Z,61.3
2017-11-30T02:58:07.542Z,61.3
2017-11-30T02:58:20.895Z,61.6
2017-11-30T02:58:33.394Z,61.4
2017-11-30T02:58:46.416Z,61.1
2017-11-30T02:59:03.357Z,60.8
2017-11-30T02:59:17.043Z,61
2017-11-30T02:59:28.454Z,61.1
2017-11-30T02:59:43.022Z,60.9
2017-11-30T02:59:55.876Z,61
2017-11-30T03:00:07.286Z,60.7
2017-11-30T03:00:24.245Z,61
2017-11-30T03:00:40.428Z,60.9
2017-11-30T03:00:56.567Z,60.9
2017-11-30T03:01:18.841Z,61.3
2017-11-30T03:01:35.297Z,60.5
2017-11-30T03:01:51.453Z,60.4
2017-11-30T03:02:03.546Z,60.9
2017-11-30T03:02:20.455Z,60.9
2017-11-30T03:02:37.267Z,60.8
2017-11-30T03:02:52.818Z,60.8
2017-11-30T03:03:04.972Z,60.9
2017-11-30T03:03:20.363Z,61.3
2017-11-30T03:03:36.468Z,61
2017-11-30T03:03:52.671Z,60.5
2017-11-30T03:04:08.736Z,60.6
2017-11-30T03:04:24.949Z,60.8
2017-11-30T03:04:41.115Z,60.5
2017-11-30T03:04:57.236Z,61.3
2017-11-30T03:05:15.015Z,61.3
2017-11-30T03:05:27.161Z,60.6
2017-11-30T03:05:44.124Z,61
2017-11-30T03:06:01.851Z,60.9
2017-11-30T03:06:18.024Z,61
2017-11-30T03:06:34.180Z,60.4
2017-11-30T03:06:50.280Z,60.9
2017-11-30T03:07:06.459Z,60.9
2017-11-30T03:07:22.618Z,60.9
2017-11-30T03:07:38.772Z,60.8
2017-11-30T03:07:55.904Z,61
2017-11-30T03:08:12.651Z,61.3
2017-11-30T03:08:25.121Z,60.7
2017-11-30T03:08:41.825Z,61
2017-11-30T03:08:53.989Z,60.8
2017-11-30T03:09:10.931Z,60.8
2017-11-30T03:09:23.101Z,60.9
2017-11-30T03:09:40.016Z,61.2
2017-11-30T03:09:52.184Z,60.5
2017-11-30T03:10:05.121Z,60.8
2017-11-30T03:10:22.020Z,61.2
2017-11-30T03:10:38.227Z,61.1
2017-11-30T03:10:50.351Z,61.2
2017-11-30T03:11:04.009Z,60.8
2017-11-30T03:11:16.275Z,61.3
2017-11-30T03:11:31.685Z,60.5
2017-11-30T03:11:43.804Z,60.6
2017-11-30T03:11:55.203Z,60.6
2017-11-30T03:12:08.126Z,60.8
2017-11-30T03:12:21.051Z,60.8
2017-11-30T03:12:38.139Z,60.8
2017-11-30T03:13:02.830Z,61
2017-11-30T03:13:14.361Z,60.9
2017-11-30T03:13:31.362Z,61.3
2017-11-30T03:13:47.407Z,60.9
2017-11-30T03:14:03.554Z,60.9
2017-11-30T03:14:19.733Z,60.7
2017-11-30T03:14:31.858Z,61.3
2017-11-30T03:14:43.235Z,61.1
2017-11-30T03:14:54.612Z,60.9
2017-11-30T03:15:07.560Z,60.8
2017-11-30T03:15:18.893Z,60.7
2017-11-30T03:15:31.852Z,60.7
2017-11-30T03:15:48.848Z,60.8
2017-11-30T03:16:04.979Z,61.1
2017-11-30T03:16:17.111Z,61.3
2017-11-30T03:16:30.079Z,61.1
2017-11-30T03:16:47.088Z,61.3
2017-11-30T03:16:59.724Z,60.9
2017-11-30T03:17:16.118Z,60.8
2017-11-30T03:17:28.264Z,60.5
2017-11-30T03:17:45.239Z,60.7
2017-11-30T03:17:57.378Z,60.9
2017-11-30T03:18:12.770Z,61
2017-11-30T03:18:28.889Z,61.2
2017-11-30T03:18:45.090Z,61.2
2017-11-30T03:18:57.215Z,60.9
2017-11-30T03:19:10.155Z,60.5
2017-11-30T03:19:25.617Z,60.5
2017-11-30T03:19:37.700Z,60.8
2017-11-30T03:19:54.576Z,61
2017-11-30T03:20:10.784Z,60.9
2017-11-30T03:20:28.492Z,61.2
2017-11-30T03:20:40.685Z,60.9
2017-11-30T03:20:54.163Z,61.3
2017-11-30T03:21:10.576Z,61.1
2017-11-30T03:21:26.869Z,60.9
2017-11-30T03:21:38.886Z,61.3
2017-11-30T03:21:54.823Z,61.1
2017-11-30T03:22:10.477Z,60.9
2017-11-30T03:22:26.604Z,60.8
2017-11-30T03:22:44.333Z,61
2017-11-30T03:23:00.487Z,61
2017-11-30T03:23:12.637Z,60.8
2017-11-30T03:23:29.584Z,60.9
2017-11-30T05:21:54.547Z,60.3
2017-11-30T05:22:11.465Z,60.3
2017-11-30T05:22:28.358Z,60.3
2017-11-30T05:22:43.831Z,60.6
2017-11-30T05:22:59.998Z,60.4
2017-11-30T05:23:16.658Z,61.1
2017-11-30T05:23:32.866Z,60.7
2017-11-30T05:23:44.502Z,60.4
2017-11-30T05:23:59.884Z,61.1
2017-11-30T05:24:15.956Z,60.6
2017-11-30T05:24:33.683Z,60.9
2017-11-30T05:24:49.820Z,60.7
2017-11-30T05:25:06.765Z,60.8
2017-11-30T05:25:21.347Z,60.6
2017-11-30T05:25:38.322Z,61
2017-11-30T05:25:54.431Z,61.5
2017-11-30T05:26:10.692Z,61.7
2017-11-30T05:26:26.765Z,61.6
2017-11-30T05:26:43.002Z,61.5
2017-11-30T05:27:00.651Z,61.3
2017-11-30T05:27:16.927Z,61.7
2017-11-30T05:27:32.973Z,61.6
2017-11-30T05:27:49.147Z,61.5
2017-11-30T05:28:05.376Z,61.1
2017-11-30T05:28:21.434Z,60.6
2017-11-30T05:28:37.683Z,60.9
2017-11-30T05:28:53.765Z,60.8
2017-11-30T05:29:09.938Z,60.7
2017-11-30T05:29:27.653Z,60.5
2017-11-30T05:29:43.845Z,61
2017-11-30T05:30:00.543Z,60.8
2017-11-30T05:30:12.227Z,60.7
2017-11-30T05:30:25.056Z,60.6
2017-11-30T05:30:40.956Z,60.9
2017-11-30T05:30:52.632Z,60.8
2017-11-30T05:31:09.676Z,60.7
2017-11-30T05:31:21.761Z,60.4
2017-11-30T05:31:34.815Z,60.7
2017-11-30T05:31:47.599Z,61
2017-11-30T05:32:04.614Z,60.9
2017-11-30T05:32:16.685Z,61.2
2017-11-30T05:32:29.686Z,61.7
2017-11-30T05:32:42.650Z,61.4
2017-11-30T05:32:55.596Z,62.1
2017-11-30T05:33:08.511Z,62.2
2017-11-30T05:33:21.529Z,61.8
2017-11-30T05:33:38.509Z,61.9
2017-11-30T05:33:52.210Z,61.8
2017-11-30T05:34:05.112Z,61.9
2017-11-30T05:34:18.128Z,62
2017-11-30T05:34:31.052Z,61.8
2017-11-30T05:34:48.702Z,61.9
2017-11-30T05:35:00.890Z,62.1
2017-11-30T05:35:13.106Z,61.7
2017-11-30T05:35:30.108Z,61.7
2017-11-30T05:35:42.831Z,61.8
2017-11-30T05:35:59.730Z,62.1
2017-11-30T05:36:11.338Z,61.6
2017-11-30T05:36:28.278Z,61.8
2017-11-30T05:36:40.404Z,62
2017-11-30T05:36:55.823Z,62.2
2017-11-30T05:37:11.914Z,62.1
2017-11-30T05:37:28.121Z,61.5
2017-11-30T05:37:44.276Z,61.8
2017-11-30T05:38:00.431Z,61.6
2017-11-30T05:38:16.560Z,61.9
2017-11-30T05:38:32.769Z,62
2017-11-30T05:38:48.864Z,61.3
2017-11-30T05:39:01.132Z,61.3
2017-11-30T05:39:18.034Z,61.9
2017-11-30T05:39:30.089Z,62
2017-11-30T05:39:45.441Z,62
2017-11-30T05:44:19.434Z,62
2017-11-30T05:44:36.997Z,61.3
2017-11-30T05:44:49.163Z,60.6
2017-11-30T05:45:02.322Z,61.1
2017-11-30T05:45:15.062Z,61.3
2017-11-30T05:45:28.674Z,61.5
2017-11-30T05:45:44.977Z,61.2
2017-11-30T05:45:57.718Z,61.6
2017-11-30T05:46:10.074Z,61.5
2017-11-30T05:46:27.362Z,61.8
2017-11-30T05:46:40.114Z,61.8
2017-11-30T05:46:57.823Z,61.8
2017-11-30T05:47:13.844Z,62
2017-11-30T05:47:28.383Z,62
2017-11-30T05:47:41.180Z,61.9
2017-11-30T05:47:53.611Z,62.1
2017-11-30T05:48:06.456Z,61.9
2017-11-30T05:48:21.534Z,61.8
2017-11-30T05:48:37.971Z,62
2017-11-30T05:48:54.161Z,62
2017-11-30T05:49:06.300Z,62.1
2017-11-30T05:49:17.685Z,62.2
2017-11-30T05:49:34.632Z,62
2017-11-30T05:49:47.679Z,61.8
2017-11-30T05:50:04.437Z,61.6
2017-11-30T05:50:22.150Z,61.6
2017-11-30T05:50:39.228Z,61.6
2017-11-30T05:50:55.362Z,61.2
2017-11-30T05:51:11.539Z,61.5
2017-11-30T05:51:23.693Z,61.7
2017-11-30T05:51:40.658Z,61
2017-11-30T05:51:56.856Z,60.6
2017-11-30T05:52:12.937Z,60.8
2017-11-30T05:52:29.079Z,60.6
2017-11-30T05:52:45.256Z,61
2017-11-30T05:53:01.503Z,60.9
2017-11-30T05:53:17.497Z,61.3
2017-11-30T05:53:33.827Z,61.3
2017-11-30T05:53:51.452Z,60.9
2017-11-30T05:54:07.636Z,61.1
2017-11-30T05:54:21.088Z,61
2017-11-30T05:54:36.691Z,61.1
2017-11-30T05:54:49.442Z,60.6
2017-11-30T05:55:06.537Z,60.9
2017-11-30T05:55:23.556Z,60.6
2017-11-30T05:55:39.741Z,60.5
2017-11-30T05:55:55.856Z,60.2
2017-11-30T05:56:08.053Z,60.4
2017-11-30T05:56:20.973Z,60.5
2017-11-30T05:56:34.011Z,60.1
2017-11-30T05:56:50.873Z,60.6
2017-11-30T05:57:07.030Z,60.5
2017-11-30T05:57:23.209Z,60.4
2017-11-30T05:57:39.420Z,60.2
2017-11-30T05:57:55.542Z,60.3
2017-11-30T05:58:13.224Z,60
2017-11-30T05:58:29.499Z,60.1
2017-11-30T05:58:45.581Z,60.6
2017-11-30T05:59:01.715Z,60.5
2017-11-30T05:59:17.929Z,60.6
2017-11-30T05:59:34.064Z,60
2017-11-30T05:59:50.295Z,60
2017-11-30T06:00:06.382Z,60.1
2017-11-30T06:00:23.275Z,60.8
2017-11-30T06:00:40.235Z,60.2
2017-11-30T06:00:56.516Z,60.3
2017-11-30T06:01:12.621Z,60.4
2017-11-30T06:01:30.323Z,60.3
2017-11-30T06:01:47.405Z,60.3
2017-11-30T06:02:04.237Z,60.3
2017-11-30T06:02:20.392Z,60.2
2017-11-30T06:02:39.077Z,60.3
2017-11-30T06:02:55.883Z,60.4
2017-11-30T06:03:11.984Z,60.3
2017-11-30T06:03:28.199Z,60.1
2017-11-30T06:03:44.295Z,60.6
2017-11-30T06:04:02.647Z,60.3
2017-11-30T06:04:18.259Z,60.6
2017-11-30T06:04:34.362Z,60.6
2017-11-30T06:04:50.542Z,60.4
2017-11-30T06:05:06.694Z,60.3
2017-11-30T06:05:22.831Z,60.4
2017-11-30T06:05:39.707Z,60.3
2017-11-30T06:05:56.839Z,60.6
2017-11-30T06:06:12.905Z,60.1
2017-11-30T06:06:29.049Z,60
2017-11-30T06:06:45.952Z,60.1
2017-11-30T06:07:03.137Z,60.1
2017-11-30T06:07:20.763Z,60.3
2017-11-30T06:07:38.497Z,59.9
2017-11-30T06:07:54.673Z,59.7
2017-11-30T06:08:10.778Z,59.9
2017-11-30T06:08:26.946Z,59.9
2017-11-30T06:08:43.209Z,59.8
2017-11-30T06:09:00.853Z,59.7
2017-11-30T06:09:17.128Z,59.8
2017-11-30T06:09:33.124Z,59.4
2017-11-30T06:09:49.261Z,59.4
2017-11-30T06:10:05.515Z,59.5
2017-11-30T06:10:18.166Z,59.2
2017-11-30T06:10:34.619Z,59.8
2017-11-30T06:10:51.375Z,59.2
2017-11-30T06:11:06.843Z,59.4
2017-11-30T06:11:23.512Z,59.3
2017-11-30T06:11:39.221Z,59.8
2017-11-30T06:11:55.585Z,59.9
2017-11-30T06:12:13.042Z,59.1
2017-11-30T06:12:29.342Z,59.1
2017-11-30T06:12:45.373Z,59.2
2017-11-30T06:13:01.524Z,59.1
2017-11-30T06:13:19.728Z,59.2
2017-11-30T06:13:37.001Z,59.5
2017-11-30T06:13:49.865Z,59.5
2017-11-30T06:14:06.186Z,59.5
2017-11-30T06:14:44.927Z,59.4
2017-11-30T06:15:02.098Z,59.3
2017-11-30T06:15:18.772Z,59.3
2017-11-30T06:15:35.574Z,59.2
2017-11-30T06:15:54.423Z,59.4
2017-11-30T06:16:14.348Z,59.4
2017-11-30T06:16:31.415Z,59
2017-11-30T06:16:48.257Z,59
2017-11-30T06:17:05.869Z,59.3
2017-11-30T06:17:21.484Z,59.2
2017-11-30T06:17:37.697Z,59.1
2017-11-30T06:17:55.405Z,58.9
2017-11-30T06:18:11.545Z,58.8
2017-11-30T06:18:27.744Z,58.8
2017-11-30T06:18:43.803Z,58.9
2017-11-30T06:18:55.960Z,59.3
2017-11-30T06:19:12.934Z,59.2
2017-11-30T06:19:29.093Z,59.2
2017-11-30T06:19:45.293Z,59.2
2017-11-30T06:20:01.433Z,59.1
2017-11-30T06:20:17.655Z,59.1
2017-11-30T06:20:35.433Z,59.3
2017-11-30T06:20:51.447Z,58.8
2017-11-30T06:21:07.583Z,58.6
2017-11-30T06:21:23.831Z,58.1
2017-11-30T06:21:39.931Z,58.7
2017-11-30T06:21:56.061Z,58.5
2017-11-30T06:22:12.531Z,58.4
2017-11-30T06:22:28.345Z,58.6
2017-11-30T06:22:44.465Z,58.5
2017-11-30T06:23:00.670Z,58.2
2017-11-30T06:23:17.063Z,58.4
2017-11-30T06:23:33.011Z,58.5
2017-11-30T06:23:49.195Z,58.5
2017-11-30T06:24:06.892Z,58.6
2017-11-30T06:24:23.024Z,58.1
2017-11-30T06:24:47.680Z,58.4
2017-11-30T06:25:03.478Z,58.4
2017-11-30T06:25:19.532Z,58
2017-11-30T06:25:35.728Z,58.5
2017-11-30T06:25:55.014Z,57.9
2017-11-30T06:26:13.327Z,58.4
2017-11-30T06:26:31.508Z,58
2017-11-30T06:26:48.256Z,57.8
2017-11-30T06:27:04.545Z,58
2017-11-30T06:27:20.620Z,58.4
2017-11-30T06:27:37.804Z,58.1
2017-11-30T06:27:54.535Z,58.1
2017-11-30T06:28:11.361Z,58.4
2017-11-30T06:28:28.387Z,58.5
2017-11-30T06:28:44.560Z,58.1
2017-11-30T06:29:00.709Z,57.6
2017-11-30T06:29:18.486Z,58.5
2017-11-30T06:29:34.623Z,58.3
2017-11-30T06:29:50.766Z,57.9
2017-11-30T06:30:06.916Z,57.8
2017-11-30T06:30:23.108Z,57.6
2017-11-30T06:30:39.205Z,57.6
2017-11-30T06:30:55.351Z,58
2017-11-30T06:31:11.519Z,57.9
2017-11-30T06:31:29.337Z,57.6
2017-11-30T06:31:46.021Z,57.7
2017-11-30T06:32:03.170Z,57.6
2017-11-30T06:32:19.980Z,57.8
2017-11-30T06:32:37.189Z,57.8
2017-11-30T06:32:53.317Z,58.5
2017-11-30T06:33:11.012Z,58.1
2017-11-30T06:33:27.158Z,58.1
2017-11-30T06:33:45.927Z,57.9
2017-11-30T06:34:02.711Z,57.9
2017-11-30T06:34:22.022Z,57.9
2017-11-30T06:34:39.785Z,57.8
2017-11-30T06:34:55.891Z,57.7
2017-11-30T06:35:12.108Z,57.9
2017-11-30T06:35:29.160Z,57.9
2017-11-30T06:35:47.967Z,57.8
2017-11-30T06:36:06.908Z,57.9
2017-11-30T06:36:23.890Z,57.7
2017-11-30T06:36:40.867Z,57.6
2017-11-30T06:36:56.931Z,57.8
2017-11-30T06:37:13.097Z,58
2017-11-30T06:37:29.573Z,57.6
2017-11-30T06:37:47.037Z,57.4
2017-11-30T06:38:03.213Z,57.8
2017-11-30T06:38:20.988Z,57.5